sensor_id;sensor_type;location;lat;lon;timestamp;temperature;humidity
37446;DHT22;23307;51.136;14.942;2023-04-28T00:00:44;7.40;99.90
37446;DHT22;23307;51.136;14.942;2023-04-28T00:03:11;7.40;99.90
37446;DHT22;23307;51.136;14.942;2023-04-28T00:05:37;7.40;99.90
37446;DHT22;23307;51.136;14.942;2023-04-28T00:08:03;7.40;99.90
37446;DHT22;23307;51.136;14.942;2023-04-28T00:10:29;7.40;99.90
37446;DHT22;23307;51.136;14.942;2023-04-28T00:12:55;7.40;99.90
37446;DHT22;23307;51.136;14.942;2023-04-28T00:15:20;7.40;99.90
37446;DHT22;23307;51.136;14.942;2023-04-28T00:17:46;7.40;99.90
37446;DHT22;23307;51.136;14.942;2023-04-28T00:20:11;7.30;99.90
37446;DHT22;23307;51.136;14.942;2023-04-28T00:22:37;7.20;99.90
37446;DHT22;23307;51.136;14.942;2023-04-28T00:25:03;7.10;99.90
37446;DHT22;23307;51.136;14.942;2023-04-28T00:27:29;7.10;99.90
37446;DHT22;23307;51.136;14.942;2023-04-28T00:29:55;7.10;99.90
37446;DHT22;23307;51.136;14.942;2023-04-28T00:32:20;7.00;99.90
37446;DHT22;23307;51.136;14.942;2023-04-28T00:34:46;6.90;99.90
37446;DHT22;23307;51.136;14.942;2023-04-28T00:37:11;6.90;99.90
37446;DHT22;23307;51.136;14.942;2023-04-28T00:39:36;6.90;99.90
37446;DHT22;23307;51.136;14.942;2023-04-28T00:42:02;6.90;99.90
37446;DHT22;23307;51.136;14.942;2023-04-28T00:44:28;6.90;99.90
37446;DHT22;23307;51.136;14.942;2023-04-28T00:46:55;6.90;99.90
37446;DHT22;23307;51.136;14.942;2023-04-28T00:49:20;6.90;99.90
37446;DHT22;23307;51.136;14.942;2023-04-28T00:51:46;6.90;99.90
37446;DHT22;23307;51.136;14.942;2023-04-28T00:54:12;6.90;99.90
37446;DHT22;23307;51.136;14.942;2023-04-28T00:56:38;7.00;99.90
37446;DHT22;23307;51.136;14.942;2023-04-28T00:59:03;7.00;99.90
37446;DHT22;23307;51.136;14.942;2023-04-28T01:01:29;6.90;99.90
37446;DHT22;23307;51.136;14.942;2023-04-28T01:03:54;6.80;99.90
37446;DHT22;23307;51.136;14.942;2023-04-28T01:06:20;6.80;99.90
37446;DHT22;23307;51.136;14.942;2023-04-28T01:08:49;6.70;99.90
37446;DHT22;23307;51.136;14.942;2023-04-28T01:11:16;6.70;99.90
37446;DHT22;23307;51.136;14.942;2023-04-28T01:13:41;6.70;99.90
37446;DHT22;23307;51.136;14.942;2023-04-28T01:16:07;6.60;99.90
37446;DHT22;23307;51.136;14.942;2023-04-28T01:18:33;6.60;99.90
37446;DHT22;23307;51.136;14.942;2023-04-28T01:20:59;6.50;99.90
37446;DHT22;23307;51.136;14.942;2023-04-28T01:23:24;6.50;99.90
37446;DHT22;23307;51.136;14.942;2023-04-28T01:25:50;6.40;99.90
37446;DHT22;23307;51.136;14.942;2023-04-28T01:28:15;6.30;99.90
37446;DHT22;23307;51.136;14.942;2023-04-28T01:30:41;6.30;99.90
37446;DHT22;23307;51.136;14.942;2023-04-28T01:33:06;6.30;99.90
37446;DHT22;23307;51.136;14.942;2023-04-28T01:35:32;6.30;99.90
37446;DHT22;23307;51.136;14.942;2023-04-28T01:37:57;6.20;99.90
37446;DHT22;23307;51.136;14.942;2023-04-28T01:40:23;6.20;99.90
37446;DHT22;23307;51.136;14.942;2023-04-28T01:42:48;6.10;99.90
37446;DHT22;23307;51.136;14.942;2023-04-28T01:45:14;6.10;99.90
37446;DHT22;23307;51.136;14.942;2023-04-28T01:47:39;6.00;99.90
37446;DHT22;23307;51.136;14.942;2023-04-28T01:50:05;6.00;99.90
37446;DHT22;23307;51.136;14.942;2023-04-28T01:52:31;5.90;99.90
37446;DHT22;23307;51.136;14.942;2023-04-28T01:54:56;5.90;99.90
37446;DHT22;23307;51.136;14.942;2023-04-28T01:57:22;5.80;99.90
37446;DHT22;23307;51.136;14.942;2023-04-28T01:59:47;5.80;99.90
37446;DHT22;23307;51.136;14.942;2023-04-28T02:02:13;5.80;99.90
37446;DHT22;23307;51.136;14.942;2023-04-28T02:04:38;5.80;99.90
37446;DHT22;23307;51.136;14.942;2023-04-28T02:07:04;5.80;99.90
37446;DHT22;23307;51.136;14.942;2023-04-28T02:09:30;5.80;99.90
37446;DHT22;23307;51.136;14.942;2023-04-28T02:11:56;5.80;99.90
37446;DHT22;23307;51.136;14.942;2023-04-28T02:14:22;5.80;99.90
37446;DHT22;23307;51.136;14.942;2023-04-28T02:16:48;5.90;99.90
37446;DHT22;23307;51.136;14.942;2023-04-28T02:19:14;5.90;99.90
37446;DHT22;23307;51.136;14.942;2023-04-28T02:21:41;5.90;99.90
37446;DHT22;23307;51.136;14.942;2023-04-28T02:24:07;5.90;99.90
37446;DHT22;23307;51.136;14.942;2023-04-28T02:26:33;5.90;99.90
37446;DHT22;23307;51.136;14.942;2023-04-28T02:28:59;5.90;99.90
37446;DHT22;23307;51.136;14.942;2023-04-28T02:31:25;5.80;99.90
37446;DHT22;23307;51.136;14.942;2023-04-28T02:33:50;5.80;99.90
37446;DHT22;23307;51.136;14.942;2023-04-28T02:36:17;5.80;99.90
37446;DHT22;23307;51.136;14.942;2023-04-28T02:38:42;5.70;99.90
37446;DHT22;23307;51.136;14.942;2023-04-28T02:41:08;5.60;99.90
37446;DHT22;23307;51.136;14.942;2023-04-28T02:43:34;5.60;99.90
37446;DHT22;23307;51.136;14.942;2023-04-28T02:46:04;5.60;99.90
37446;DHT22;23307;51.136;14.942;2023-04-28T02:48:29;5.50;99.90
37446;DHT22;23307;51.136;14.942;2023-04-28T02:50:55;5.40;99.90
37446;DHT22;23307;51.136;14.942;2023-04-28T02:53:21;5.40;99.90
37446;DHT22;23307;51.136;14.942;2023-04-28T02:55:47;5.40;99.90
37446;DHT22;23307;51.136;14.942;2023-04-28T02:58:13;5.40;99.90
37446;DHT22;23307;51.136;14.942;2023-04-28T03:00:38;5.30;99.90
37446;DHT22;23307;51.136;14.942;2023-04-28T03:03:04;5.30;99.90
37446;DHT22;23307;51.136;14.942;2023-04-28T03:05:30;5.20;99.90
37446;DHT22;23307;51.136;14.942;2023-04-28T03:07:55;5.20;99.90
37446;DHT22;23307;51.136;14.942;2023-04-28T03:10:21;5.30;99.90
37446;DHT22;23307;51.136;14.942;2023-04-28T03:12:46;5.30;99.90
37446;DHT22;23307;51.136;14.942;2023-04-28T03:15:12;5.30;99.90
37446;DHT22;23307;51.136;14.942;2023-04-28T03:17:37;5.30;99.90
37446;DHT22;23307;51.136;14.942;2023-04-28T03:20:06;5.30;99.90
37446;DHT22;23307;51.136;14.942;2023-04-28T03:22:32;5.30;99.90
37446;DHT22;23307;51.136;14.942;2023-04-28T03:24:58;5.30;99.90
37446;DHT22;23307;51.136;14.942;2023-04-28T03:27:23;5.30;99.90
37446;DHT22;23307;51.136;14.942;2023-04-28T03:29:49;5.30;99.90
37446;DHT22;23307;51.136;14.942;2023-04-28T03:32:14;5.20;99.90
37446;DHT22;23307;51.136;14.942;2023-04-28T03:34:40;5.10;99.90
37446;DHT22;23307;51.136;14.942;2023-04-28T03:37:05;5.20;99.90
37446;DHT22;23307;51.136;14.942;2023-04-28T03:39:31;5.20;99.90
37446;DHT22;23307;51.136;14.942;2023-04-28T03:41:57;5.20;99.90
37446;DHT22;23307;51.136;14.942;2023-04-28T03:44:22;5.30;99.90
37446;DHT22;23307;51.136;14.942;2023-04-28T03:46:48;5.40;99.90
37446;DHT22;23307;51.136;14.942;2023-04-28T03:49:14;5.40;99.90
37446;DHT22;23307;51.136;14.942;2023-04-28T03:51:40;5.40;99.90
37446;DHT22;23307;51.136;14.942;2023-04-28T03:54:05;5.40;99.90
37446;DHT22;23307;51.136;14.942;2023-04-28T03:56:31;5.50;99.90
37446;DHT22;23307;51.136;14.942;2023-04-28T03:58:56;5.50;99.90
37446;DHT22;23307;51.136;14.942;2023-04-28T04:01:22;5.50;99.90
37446;DHT22;23307;51.136;14.942;2023-04-28T04:03:47;5.50;99.90
37446;DHT22;23307;51.136;14.942;2023-04-28T04:06:13;5.60;99.90
37446;DHT22;23307;51.136;14.942;2023-04-28T04:08:39;5.60;99.90
37446;DHT22;23307;51.136;14.942;2023-04-28T04:11:05;5.60;99.90
37446;DHT22;23307;51.136;14.942;2023-04-28T04:13:30;5.70;99.90
37446;DHT22;23307;51.136;14.942;2023-04-28T04:15:56;5.70;99.90
37446;DHT22;23307;51.136;14.942;2023-04-28T04:18:21;5.70;99.90
37446;DHT22;23307;51.136;14.942;2023-04-28T04:20:47;5.70;99.90
37446;DHT22;23307;51.136;14.942;2023-04-28T04:23:14;5.70;99.90
37446;DHT22;23307;51.136;14.942;2023-04-28T04:25:39;5.70;99.90
37446;DHT22;23307;51.136;14.942;2023-04-28T04:28:05;5.70;99.90
37446;DHT22;23307;51.136;14.942;2023-04-28T04:30:30;5.70;99.90
37446;DHT22;23307;51.136;14.942;2023-04-28T04:32:56;5.70;99.90
37446;DHT22;23307;51.136;14.942;2023-04-28T04:35:21;5.80;99.90
37446;DHT22;23307;51.136;14.942;2023-04-28T04:37:47;5.80;99.90
37446;DHT22;23307;51.136;14.942;2023-04-28T04:40:13;5.80;99.90
37446;DHT22;23307;51.136;14.942;2023-04-28T04:42:38;5.90;99.90
37446;DHT22;23307;51.136;14.942;2023-04-28T04:45:04;5.90;99.90
37446;DHT22;23307;51.136;14.942;2023-04-28T04:47:29;5.90;99.90
37446;DHT22;23307;51.136;14.942;2023-04-28T04:49:56;6.00;99.90
37446;DHT22;23307;51.136;14.942;2023-04-28T04:52:21;6.00;99.90
37446;DHT22;23307;51.136;14.942;2023-04-28T04:54:46;6.00;99.90
37446;DHT22;23307;51.136;14.942;2023-04-28T04:57:12;6.10;99.90
37446;DHT22;23307;51.136;14.942;2023-04-28T04:59:38;6.10;99.90
37446;DHT22;23307;51.136;14.942;2023-04-28T05:02:03;6.20;99.90
37446;DHT22;23307;51.136;14.942;2023-04-28T05:04:29;6.30;99.90
37446;DHT22;23307;51.136;14.942;2023-04-28T05:06:54;6.30;99.90
37446;DHT22;23307;51.136;14.942;2023-04-28T05:09:20;6.40;99.90
37446;DHT22;23307;51.136;14.942;2023-04-28T05:11:47;6.40;99.90
37446;DHT22;23307;51.136;14.942;2023-04-28T05:14:13;6.50;99.90
37446;DHT22;23307;51.136;14.942;2023-04-28T05:16:39;6.50;99.90
37446;DHT22;23307;51.136;14.942;2023-04-28T05:19:06;6.60;99.90
37446;DHT22;23307;51.136;14.942;2023-04-28T05:21:31;6.60;99.90
37446;DHT22;23307;51.136;14.942;2023-04-28T05:23:57;6.70;99.90
37446;DHT22;23307;51.136;14.942;2023-04-28T05:26:23;6.70;99.90
37446;DHT22;23307;51.136;14.942;2023-04-28T05:28:48;6.80;99.90
37446;DHT22;23307;51.136;14.942;2023-04-28T05:31:14;6.90;99.90
37446;DHT22;23307;51.136;14.942;2023-04-28T05:33:40;6.90;99.90
37446;DHT22;23307;51.136;14.942;2023-04-28T05:36:06;6.90;99.90
37446;DHT22;23307;51.136;14.942;2023-04-28T05:38:32;7.00;99.90
37446;DHT22;23307;51.136;14.942;2023-04-28T05:40:58;7.00;99.90
37446;DHT22;23307;51.136;14.942;2023-04-28T05:43:24;7.00;99.90
37446;DHT22;23307;51.136;14.942;2023-04-28T05:45:49;7.00;99.90
37446;DHT22;23307;51.136;14.942;2023-04-28T05:48:15;7.00;99.90
37446;DHT22;23307;51.136;14.942;2023-04-28T05:50:40;7.10;99.90
37446;DHT22;23307;51.136;14.942;2023-04-28T05:53:06;7.10;99.90
37446;DHT22;23307;51.136;14.942;2023-04-28T05:55:32;7.20;99.90
37446;DHT22;23307;51.136;14.942;2023-04-28T05:57:58;7.20;99.90
37446;DHT22;23307;51.136;14.942;2023-04-28T06:00:24;7.30;99.90
37446;DHT22;23307;51.136;14.942;2023-04-28T06:02:49;7.40;99.90
37446;DHT22;23307;51.136;14.942;2023-04-28T06:05:15;7.50;99.90
37446;DHT22;23307;51.136;14.942;2023-04-28T06:07:41;7.60;99.90
37446;DHT22;23307;51.136;14.942;2023-04-28T06:10:07;7.70;99.90
37446;DHT22;23307;51.136;14.942;2023-04-28T06:12:33;7.80;99.90
37446;DHT22;23307;51.136;14.942;2023-04-28T06:14:58;7.80;99.90
37446;DHT22;23307;51.136;14.942;2023-04-28T06:17:24;7.90;99.90
37446;DHT22;23307;51.136;14.942;2023-04-28T06:19:49;8.00;99.90
37446;DHT22;23307;51.136;14.942;2023-04-28T06:22:18;8.10;99.90
37446;DHT22;23307;51.136;14.942;2023-04-28T06:24:44;8.20;99.90
37446;DHT22;23307;51.136;14.942;2023-04-28T06:27:09;8.30;99.90
37446;DHT22;23307;51.136;14.942;2023-04-28T06:29:35;8.40;99.90
37446;DHT22;23307;51.136;14.942;2023-04-28T06:32:00;8.50;99.90
37446;DHT22;23307;51.136;14.942;2023-04-28T06:34:26;8.60;99.90
37446;DHT22;23307;51.136;14.942;2023-04-28T06:36:53;8.70;99.90
37446;DHT22;23307;51.136;14.942;2023-04-28T06:39:20;8.80;99.90
37446;DHT22;23307;51.136;14.942;2023-04-28T06:41:46;9.00;99.90
37446;DHT22;23307;51.136;14.942;2023-04-28T06:44:11;9.10;99.90
37446;DHT22;23307;51.136;14.942;2023-04-28T06:46:37;9.30;99.90
37446;DHT22;23307;51.136;14.942;2023-04-28T06:49:03;9.40;99.90
37446;DHT22;23307;51.136;14.942;2023-04-28T06:51:30;9.50;99.90
37446;DHT22;23307;51.136;14.942;2023-04-28T06:53:56;9.60;99.90
37446;DHT22;23307;51.136;14.942;2023-04-28T06:56:22;9.70;99.90
37446;DHT22;23307;51.136;14.942;2023-04-28T06:58:47;9.80;99.90
37446;DHT22;23307;51.136;14.942;2023-04-28T07:01:13;9.90;99.90
37446;DHT22;23307;51.136;14.942;2023-04-28T07:03:38;10.10;99.90
37446;DHT22;23307;51.136;14.942;2023-04-28T07:06:04;10.20;99.90
37446;DHT22;23307;51.136;14.942;2023-04-28T07:08:30;10.30;99.90
37446;DHT22;23307;51.136;14.942;2023-04-28T07:10:56;10.40;99.90
37446;DHT22;23307;51.136;14.942;2023-04-28T07:13:21;10.50;99.90
37446;DHT22;23307;51.136;14.942;2023-04-28T07:15:47;10.60;99.90
37446;DHT22;23307;51.136;14.942;2023-04-28T07:18:12;10.60;99.90
37446;DHT22;23307;51.136;14.942;2023-04-28T07:20:38;10.70;99.90
37446;DHT22;23307;51.136;14.942;2023-04-28T07:23:03;10.90;99.90
37446;DHT22;23307;51.136;14.942;2023-04-28T07:25:29;11.00;99.90
37446;DHT22;23307;51.136;14.942;2023-04-28T07:27:55;11.10;99.90
37446;DHT22;23307;51.136;14.942;2023-04-28T07:30:21;11.20;99.90
37446;DHT22;23307;51.136;14.942;2023-04-28T07:32:47;11.30;99.90
37446;DHT22;23307;51.136;14.942;2023-04-28T07:35:12;11.40;99.90
37446;DHT22;23307;51.136;14.942;2023-04-28T07:37:38;11.60;99.90
37446;DHT22;23307;51.136;14.942;2023-04-28T07:40:05;11.70;99.90
37446;DHT22;23307;51.136;14.942;2023-04-28T07:42:31;11.80;99.90
37446;DHT22;23307;51.136;14.942;2023-04-28T07:44:56;12.00;99.90
37446;DHT22;23307;51.136;14.942;2023-04-28T07:47:23;12.20;99.90
37446;DHT22;23307;51.136;14.942;2023-04-28T07:49:49;12.30;99.90
37446;DHT22;23307;51.136;14.942;2023-04-28T07:52:14;12.50;99.90
37446;DHT22;23307;51.136;14.942;2023-04-28T07:54:40;12.60;99.90
37446;DHT22;23307;51.136;14.942;2023-04-28T07:57:06;12.70;99.90
37446;DHT22;23307;51.136;14.942;2023-04-28T07:59:34;12.90;99.90
37446;DHT22;23307;51.136;14.942;2023-04-28T08:02:00;13.10;99.90
37446;DHT22;23307;51.136;14.942;2023-04-28T08:04:26;13.30;99.90
37446;DHT22;23307;51.136;14.942;2023-04-28T08:06:52;13.50;99.90
37446;DHT22;23307;51.136;14.942;2023-04-28T08:09:18;13.70;99.90
37446;DHT22;23307;51.136;14.942;2023-04-28T08:11:43;13.80;99.60
37446;DHT22;23307;51.136;14.942;2023-04-28T08:14:09;13.90;99.10
37446;DHT22;23307;51.136;14.942;2023-04-28T08:16:34;14.00;98.60
37446;DHT22;23307;51.136;14.942;2023-04-28T08:19:02;14.10;98.00
37446;DHT22;23307;51.136;14.942;2023-04-28T08:21:28;14.20;97.30
37446;DHT22;23307;51.136;14.942;2023-04-28T08:23:53;14.40;96.90
37446;DHT22;23307;51.136;14.942;2023-04-28T08:26:19;14.50;96.80
37446;DHT22;23307;51.136;14.942;2023-04-28T08:28:44;14.60;95.70
37446;DHT22;23307;51.136;14.942;2023-04-28T08:31:10;14.80;95.00
37446;DHT22;23307;51.136;14.942;2023-04-28T08:33:35;15.10;95.30
37446;DHT22;23307;51.136;14.942;2023-04-28T08:36:01;15.30;95.00
37446;DHT22;23307;51.136;14.942;2023-04-28T08:38:27;15.50;93.50
37446;DHT22;23307;51.136;14.942;2023-04-28T08:40:53;15.50;93.00
37446;DHT22;23307;51.136;14.942;2023-04-28T08:43:19;15.60;91.80
37446;DHT22;23307;51.136;14.942;2023-04-28T08:45:45;15.60;91.50
37446;DHT22;23307;51.136;14.942;2023-04-28T08:48:18;15.60;91.00
37446;DHT22;23307;51.136;14.942;2023-04-28T08:50:53;15.70;90.40
37446;DHT22;23307;51.136;14.942;2023-04-28T08:53:24;15.90;90.90
37446;DHT22;23307;51.136;14.942;2023-04-28T08:55:54;16.00;90.90
37446;DHT22;23307;51.136;14.942;2023-04-28T08:58:25;16.20;90.00
37446;DHT22;23307;51.136;14.942;2023-04-28T09:00:51;16.20;88.80
37446;DHT22;23307;51.136;14.942;2023-04-28T09:03:18;16.40;88.40
37446;DHT22;23307;51.136;14.942;2023-04-28T09:05:44;16.40;87.40
37446;DHT22;23307;51.136;14.942;2023-04-28T09:08:09;16.50;86.40
37446;DHT22;23307;51.136;14.942;2023-04-28T09:10:36;16.60;87.10
37446;DHT22;23307;51.136;14.942;2023-04-28T09:13:02;16.80;86.80
37446;DHT22;23307;51.136;14.942;2023-04-28T09:15:36;16.90;87.10
37446;DHT22;23307;51.136;14.942;2023-04-28T09:18:06;17.10;86.70
37446;DHT22;23307;51.136;14.942;2023-04-28T09:20:33;17.20;85.40
37446;DHT22;23307;51.136;14.942;2023-04-28T09:25:38;17.30;83.60
37446;DHT22;23307;51.136;14.942;2023-04-28T09:28:21;17.50;84.30
37446;DHT22;23307;51.136;14.942;2023-04-28T09:30:47;17.70;83.10
37446;DHT22;23307;51.136;14.942;2023-04-28T09:33:13;17.70;81.00
37446;DHT22;23307;51.136;14.942;2023-04-28T09:35:39;17.70;80.70
37446;DHT22;23307;51.136;14.942;2023-04-28T09:38:05;17.70;81.00
37446;DHT22;23307;51.136;14.942;2023-04-28T09:40:31;17.80;81.30
37446;DHT22;23307;51.136;14.942;2023-04-28T09:42:56;18.00;82.50
37446;DHT22;23307;51.136;14.942;2023-04-28T09:45:22;18.10;78.60
37446;DHT22;23307;51.136;14.942;2023-04-28T09:47:48;18.20;78.40
37446;DHT22;23307;51.136;14.942;2023-04-28T09:50:15;18.30;78.00
37446;DHT22;23307;51.136;14.942;2023-04-28T09:52:44;18.30;77.50
37446;DHT22;23307;51.136;14.942;2023-04-28T09:55:11;18.30;76.20
37446;DHT22;23307;51.136;14.942;2023-04-28T09:57:38;18.30;76.50
37446;DHT22;23307;51.136;14.942;2023-04-28T10:00:05;18.60;77.40
37446;DHT22;23307;51.136;14.942;2023-04-28T10:02:33;18.70;76.80
37446;DHT22;23307;51.136;14.942;2023-04-28T10:04:59;18.90;77.50
37446;DHT22;23307;51.136;14.942;2023-04-28T10:07:25;19.10;76.00
37446;DHT22;23307;51.136;14.942;2023-04-28T10:09:51;19.40;74.70
37446;DHT22;23307;51.136;14.942;2023-04-28T10:12:19;19.60;73.80
37446;DHT22;23307;51.136;14.942;2023-04-28T10:14:47;19.80;74.50
37446;DHT22;23307;51.136;14.942;2023-04-28T10:17:15;20.00;74.20
37446;DHT22;23307;51.136;14.942;2023-04-28T10:19:43;20.00;71.20
37446;DHT22;23307;51.136;14.942;2023-04-28T10:22:28;20.10;71.40
37446;DHT22;23307;51.136;14.942;2023-04-28T10:27:45;20.20;69.50
37446;DHT22;23307;51.136;14.942;2023-04-28T10:30:16;20.20;69.10
37446;DHT22;23307;51.136;14.942;2023-04-28T10:32:42;20.30;69.60
37446;DHT22;23307;51.136;14.942;2023-04-28T10:38:12;20.40;68.20
37446;DHT22;23307;51.136;14.942;2023-04-28T10:40:45;20.50;66.60
37446;DHT22;23307;51.136;14.942;2023-04-28T10:43:13;20.60;67.40
37446;DHT22;23307;51.136;14.942;2023-04-28T10:48:16;20.60;66.60
37446;DHT22;23307;51.136;14.942;2023-04-28T10:58:36;20.20;67.40
37446;DHT22;23307;51.136;14.942;2023-04-28T11:06:45;20.10;67.00
37446;DHT22;23307;51.136;14.942;2023-04-28T11:11:36;19.90;65.10
37446;DHT22;23307;51.136;14.942;2023-04-28T11:16:48;19.60;65.10
37446;DHT22;23307;51.136;14.942;2023-04-28T11:19:17;19.60;65.20
37446;DHT22;23307;51.136;14.942;2023-04-28T11:21:44;19.50;66.10
37446;DHT22;23307;51.136;14.942;2023-04-28T11:24:11;19.60;65.90
37446;DHT22;23307;51.136;14.942;2023-04-28T11:26:37;19.60;65.20
37446;DHT22;23307;51.136;14.942;2023-04-28T11:29:03;19.60;65.80
37446;DHT22;23307;51.136;14.942;2023-04-28T11:31:29;19.60;65.80
37446;DHT22;23307;51.136;14.942;2023-04-28T11:34:05;19.50;65.80
37446;DHT22;23307;51.136;14.942;2023-04-28T11:36:36;19.50;65.20
37446;DHT22;23307;51.136;14.942;2023-04-28T11:39:06;19.40;64.60
37446;DHT22;23307;51.136;14.942;2023-04-28T11:41:36;19.30;64.90
37446;DHT22;23307;51.136;14.942;2023-04-28T11:44:16;19.30;64.90
37446;DHT22;23307;51.136;14.942;2023-04-28T11:46:53;19.30;65.50
37446;DHT22;23307;51.136;14.942;2023-04-28T11:49:25;19.20;65.80
37446;DHT22;23307;51.136;14.942;2023-04-28T11:52:12;19.20;66.10
37446;DHT22;23307;51.136;14.942;2023-04-28T11:54:38;19.20;66.40
37446;DHT22;23307;51.136;14.942;2023-04-28T11:57:06;19.10;66.30
37446;DHT22;23307;51.136;14.942;2023-04-28T11:59:41;19.10;66.90
37446;DHT22;23307;51.136;14.942;2023-04-28T12:02:06;19.20;67.00
37446;DHT22;23307;51.136;14.942;2023-04-28T12:04:39;19.10;65.20
37446;DHT22;23307;51.136;14.942;2023-04-28T12:07:13;19.00;65.10
37446;DHT22;23307;51.136;14.942;2023-04-28T12:10:08;19.00;65.80
37446;DHT22;23307;51.136;14.942;2023-04-28T12:12:34;18.90;66.30
37446;DHT22;23307;51.136;14.942;2023-04-28T12:15:04;19.00;67.20
37446;DHT22;23307;51.136;14.942;2023-04-28T12:17:33;18.90;67.60
37446;DHT22;23307;51.136;14.942;2023-04-28T12:20:01;18.90;67.60
37446;DHT22;23307;51.136;14.942;2023-04-28T12:22:27;18.90;67.20
37446;DHT22;23307;51.136;14.942;2023-04-28T12:25:09;18.80;66.60
37446;DHT22;23307;51.136;14.942;2023-04-28T12:27:36;18.80;66.70
37446;DHT22;23307;51.136;14.942;2023-04-28T12:32:46;18.70;68.60
37446;DHT22;23307;51.136;14.942;2023-04-28T12:35:12;18.70;67.30
37446;DHT22;23307;51.136;14.942;2023-04-28T12:37:38;18.70;66.90
37446;DHT22;23307;51.136;14.942;2023-04-28T12:40:05;18.70;66.90
37446;DHT22;23307;51.136;14.942;2023-04-28T12:42:30;18.60;66.40
37446;DHT22;23307;51.136;14.942;2023-04-28T12:44:56;18.60;66.30
37446;DHT22;23307;51.136;14.942;2023-04-28T12:47:21;18.60;66.70
37446;DHT22;23307;51.136;14.942;2023-04-28T12:49:47;18.60;66.50
37446;DHT22;23307;51.136;14.942;2023-04-28T12:52:15;18.60;67.60
37446;DHT22;23307;51.136;14.942;2023-04-28T12:54:40;18.60;67.80
37446;DHT22;23307;51.136;14.942;2023-04-28T12:57:11;18.70;67.70
37446;DHT22;23307;51.136;14.942;2023-04-28T12:59:37;18.80;67.50
37446;DHT22;23307;51.136;14.942;2023-04-28T13:02:03;19.00;67.60
37446;DHT22;23307;51.136;14.942;2023-04-28T13:04:29;19.30;68.10
37446;DHT22;23307;51.136;14.942;2023-04-28T13:06:56;19.40;67.90
37446;DHT22;23307;51.136;14.942;2023-04-28T13:09:23;19.50;66.70
37446;DHT22;23307;51.136;14.942;2023-04-28T13:11:49;19.40;66.60
37446;DHT22;23307;51.136;14.942;2023-04-28T13:14:14;19.30;65.60
37446;DHT22;23307;51.136;14.942;2023-04-28T13:16:40;19.30;66.10
37446;DHT22;23307;51.136;14.942;2023-04-28T13:19:05;19.30;66.70
37446;DHT22;23307;51.136;14.942;2023-04-28T13:21:35;19.40;67.10
37446;DHT22;23307;51.136;14.942;2023-04-28T13:24:01;19.40;66.70
37446;DHT22;23307;51.136;14.942;2023-04-28T13:26:27;19.30;66.20
37446;DHT22;23307;51.136;14.942;2023-04-28T13:28:53;19.20;67.00
37446;DHT22;23307;51.136;14.942;2023-04-28T13:31:19;19.20;68.20
37446;DHT22;23307;51.136;14.942;2023-04-28T13:33:45;19.10;67.90
37446;DHT22;23307;51.136;14.942;2023-04-28T13:36:10;19.00;67.90
37446;DHT22;23307;51.136;14.942;2023-04-28T13:38:36;19.00;68.20
37446;DHT22;23307;51.136;14.942;2023-04-28T13:41:02;19.00;68.50
37446;DHT22;23307;51.136;14.942;2023-04-28T13:43:27;19.00;68.00
37446;DHT22;23307;51.136;14.942;2023-04-28T13:45:53;18.90;68.40
37446;DHT22;23307;51.136;14.942;2023-04-28T13:48:19;18.90;69.00
37446;DHT22;23307;51.136;14.942;2023-04-28T13:50:44;18.90;68.50
37446;DHT22;23307;51.136;14.942;2023-04-28T13:53:10;18.90;67.90
37446;DHT22;23307;51.136;14.942;2023-04-28T13:55:36;19.00;68.50
37446;DHT22;23307;51.136;14.942;2023-04-28T13:58:02;19.10;68.70
37446;DHT22;23307;51.136;14.942;2023-04-28T14:00:30;19.10;67.50
37446;DHT22;23307;51.136;14.942;2023-04-28T14:02:57;19.10;67.10
37446;DHT22;23307;51.136;14.942;2023-04-28T14:05:23;19.10;67.40
37446;DHT22;23307;51.136;14.942;2023-04-28T14:07:49;19.00;67.30
37446;DHT22;23307;51.136;14.942;2023-04-28T14:10:14;19.10;67.70
37446;DHT22;23307;51.136;14.942;2023-04-28T14:12:40;19.10;68.00
37446;DHT22;23307;51.136;14.942;2023-04-28T14:15:06;19.10;68.10
37446;DHT22;23307;51.136;14.942;2023-04-28T14:17:32;19.10;68.40
37446;DHT22;23307;51.136;14.942;2023-04-28T14:19:59;18.90;68.50
37446;DHT22;23307;51.136;14.942;2023-04-28T14:22:26;18.90;68.80
37446;DHT22;23307;51.136;14.942;2023-04-28T14:24:51;18.90;68.80
37446;DHT22;23307;51.136;14.942;2023-04-28T14:27:17;18.90;68.90
37446;DHT22;23307;51.136;14.942;2023-04-28T14:29:43;18.90;68.80
37446;DHT22;23307;51.136;14.942;2023-04-28T14:32:08;18.90;69.20
37446;DHT22;23307;51.136;14.942;2023-04-28T14:34:34;18.80;69.60
37446;DHT22;23307;51.136;14.942;2023-04-28T14:36:59;18.80;69.70
37446;DHT22;23307;51.136;14.942;2023-04-28T14:39:25;18.60;69.70
37446;DHT22;23307;51.136;14.942;2023-04-28T14:41:51;18.50;70.50
37446;DHT22;23307;51.136;14.942;2023-04-28T14:44:16;18.40;70.50
37446;DHT22;23307;51.136;14.942;2023-04-28T14:46:42;18.40;71.10
37446;DHT22;23307;51.136;14.942;2023-04-28T14:49:07;18.30;70.90
37446;DHT22;23307;51.136;14.942;2023-04-28T14:51:33;18.20;71.20
37446;DHT22;23307;51.136;14.942;2023-04-28T14:53:59;18.20;72.30
37446;DHT22;23307;51.136;14.942;2023-04-28T14:56:25;18.20;72.50
37446;DHT22;23307;51.136;14.942;2023-04-28T14:58:51;18.20;72.50
37446;DHT22;23307;51.136;14.942;2023-04-28T15:01:16;18.10;72.80
37446;DHT22;23307;51.136;14.942;2023-04-28T15:03:42;18.10;73.20
37446;DHT22;23307;51.136;14.942;2023-04-28T15:06:08;18.00;73.40
37446;DHT22;23307;51.136;14.942;2023-04-28T15:08:33;18.00;73.20
37446;DHT22;23307;51.136;14.942;2023-04-28T15:10:59;18.00;73.60
37446;DHT22;23307;51.136;14.942;2023-04-28T15:13:24;18.00;73.80
37446;DHT22;23307;51.136;14.942;2023-04-28T15:15:52;17.90;74.00
37446;DHT22;23307;51.136;14.942;2023-04-28T15:18:17;17.90;73.90
37446;DHT22;23307;51.136;14.942;2023-04-28T15:20:43;17.80;73.80
37446;DHT22;23307;51.136;14.942;2023-04-28T15:23:08;17.70;74.10
37446;DHT22;23307;51.136;14.942;2023-04-28T15:25:35;17.70;74.10
37446;DHT22;23307;51.136;14.942;2023-04-28T15:28:00;17.70;74.70
37446;DHT22;23307;51.136;14.942;2023-04-28T15:30:28;17.60;75.00
37446;DHT22;23307;51.136;14.942;2023-04-28T15:32:53;17.60;75.40
37446;DHT22;23307;51.136;14.942;2023-04-28T15:35:19;17.50;73.90
37446;DHT22;23307;51.136;14.942;2023-04-28T15:37:46;17.40;74.80
37446;DHT22;23307;51.136;14.942;2023-04-28T15:40:17;17.40;75.30
37446;DHT22;23307;51.136;14.942;2023-04-28T15:42:44;17.30;75.40
37446;DHT22;23307;51.136;14.942;2023-04-28T15:45:14;17.20;76.00
37446;DHT22;23307;51.136;14.942;2023-04-28T15:47:40;17.00;76.30
37446;DHT22;23307;51.136;14.942;2023-04-28T15:50:08;17.00;77.60